Terminal Aerodrome Forecast
Issued by NWS

Home | Current Version | Previous Version | Text Only | Print | Product List | Glossary On
Versions: 1 2 3 4 5 6 7 8 9 10 11 12 13 14 15 16 17
000
FTUS42 KTBW 281700
TAFPIE
TAF
KPIE 281735Z 2818/2918 04006KT P6SM SKC
     FM290000 03006KT P6SM FEW250
     FM291200 05006KT P6SM FEW250=

USA.gov is the U.S. government's official web portal to all federal, state and local government web resources and services.